Chaplin, Connecticut
Current Conditions -  °F | °C
As of 1:52 PM on Friday 21 Nov 2014 (Local Time) from KIJD Reporting Station
Clear Clear  
Wind Chill: 23°   Ceiling: Unl
Heat Index: 34°   Visibility: 10mi
Dew Point:   Wind: 18mph
Humidity: 35%   Direction: 320°NW
Pressure: 30.22"   Gusts: 32mph
Location:  41.79°N, 72.13°W
Report Text: KIJD 211852Z AUTO 32016G28KT 10SM CLR 01/M13 A3022 RMK AO2 PK WND 34028/1849 SLP234 T00111128
Loading
Personal Weather Stations






























Interactive Weather Map New forecast layout! Learn more

10-Day Weather Forecast

Advertisements
Track Severe Weather on mobile